sensor_id;sensor_type;location;lat;lon;timestamp;P1;durP1;ratioP1;P2;durP2;ratioP2
75413;SDS011;64758;52.122;5.404;2023-05-10T00:00:15;16.40;;;8.55;;
75413;SDS011;64758;52.122;5.404;2023-05-10T00:02:42;18.83;;;9.23;;
75413;SDS011;64758;52.122;5.404;2023-05-10T00:05:10;21.02;;;10.63;;
75413;SDS011;64758;52.122;5.404;2023-05-10T00:07:36;19.40;;;10.32;;
75413;SDS011;64758;52.122;5.404;2023-05-10T00:10:03;25.38;;;11.38;;
75413;SDS011;64758;52.122;5.404;2023-05-10T00:12:29;21.23;;;10.68;;
75413;SDS011;64758;52.122;5.404;2023-05-10T00:14:56;19.93;;;10.87;;
75413;SDS011;64758;52.122;5.404;2023-05-10T00:17:22;20.38;;;10.93;;
75413;SDS011;64758;52.122;5.404;2023-05-10T00:19:49;23.65;;;11.32;;
75413;SDS011;64758;52.122;5.404;2023-05-10T00:22:15;22.10;;;12.10;;
75413;SDS011;64758;52.122;5.404;2023-05-10T00:24:42;24.45;;;12.40;;
75413;SDS011;64758;52.122;5.404;2023-05-10T00:27:08;23.40;;;11.87;;
75413;SDS011;64758;52.122;5.404;2023-05-10T00:29:35;27.23;;;12.60;;
75413;SDS011;64758;52.122;5.404;2023-05-10T00:32:01;23.30;;;12.05;;
75413;SDS011;64758;52.122;5.404;2023-05-10T00:34:28;20.80;;;10.55;;
75413;SDS011;64758;52.122;5.404;2023-05-10T00:36:54;19.42;;;9.60;;
75413;SDS011;64758;52.122;5.404;2023-05-10T00:39:22;22.23;;;11.23;;
75413;SDS011;64758;52.122;5.404;2023-05-10T00:41:48;23.48;;;11.48;;
75413;SDS011;64758;52.122;5.404;2023-05-10T00:44:15;25.40;;;13.05;;
75413;SDS011;64758;52.122;5.404;2023-05-10T00:46:41;30.80;;;14.05;;
75413;SDS011;64758;52.122;5.404;2023-05-10T00:49:08;33.90;;;15.25;;
75413;SDS011;64758;52.122;5.404;2023-05-10T00:51:34;30.37;;;13.93;;
75413;SDS011;64758;52.122;5.404;2023-05-10T00:54:02;36.75;;;15.82;;
75413;SDS011;64758;52.122;5.404;2023-05-10T00:56:29;35.50;;;15.10;;
75413;SDS011;64758;52.122;5.404;2023-05-10T00:58:56;36.47;;;16.02;;
75413;SDS011;64758;52.122;5.404;2023-05-10T01:01:23;38.13;;;16.73;;
75413;SDS011;64758;52.122;5.404;2023-05-10T01:03:49;37.10;;;16.30;;
75413;SDS011;64758;52.122;5.404;2023-05-10T01:06:16;41.05;;;16.88;;
75413;SDS011;64758;52.122;5.404;2023-05-10T01:08:43;37.72;;;17.58;;
75413;SDS011;64758;52.122;5.404;2023-05-10T01:11:09;37.78;;;16.73;;
75413;SDS011;64758;52.122;5.404;2023-05-10T01:13:36;36.13;;;16.38;;
75413;SDS011;64758;52.122;5.404;2023-05-10T01:16:05;35.90;;;16.33;;
75413;SDS011;64758;52.122;5.404;2023-05-10T01:18:33;38.13;;;16.95;;
75413;SDS011;64758;52.122;5.404;2023-05-10T01:21:08;42.38;;;17.15;;
75413;SDS011;64758;52.122;5.404;2023-05-10T01:26:49;36.88;;;15.98;;
75413;SDS011;64758;52.122;5.404;2023-05-10T01:35:06;41.38;;;16.23;;
75413;SDS011;64758;52.122;5.404;2023-05-10T01:37:42;37.75;;;16.30;;
75413;SDS011;64758;52.122;5.404;2023-05-10T01:40:23;39.95;;;16.70;;
75413;SDS011;64758;52.122;5.404;2023-05-10T01:43:00;43.40;;;16.37;;
75413;SDS011;64758;52.122;5.404;2023-05-10T01:45:33;41.92;;;16.95;;
75413;SDS011;64758;52.122;5.404;2023-05-10T01:48:15;43.80;;;16.80;;
75413;SDS011;64758;52.122;5.404;2023-05-10T01:50:45;43.42;;;17.23;;
75413;SDS011;64758;52.122;5.404;2023-05-10T01:53:13;43.55;;;17.15;;
75413;SDS011;64758;52.122;5.404;2023-05-10T01:55:46;40.27;;;15.87;;
75413;SDS011;64758;52.122;5.404;2023-05-10T01:58:22;48.17;;;18.45;;
75413;SDS011;64758;52.122;5.404;2023-05-10T02:01:01;41.47;;;17.20;;
75413;SDS011;64758;52.122;5.404;2023-05-10T02:03:30;43.58;;;17.20;;
75413;SDS011;64758;52.122;5.404;2023-05-10T02:05:59;44.60;;;17.70;;
75413;SDS011;64758;52.122;5.404;2023-05-10T02:08:26;42.70;;;16.53;;
75413;SDS011;64758;52.122;5.404;2023-05-10T02:10:53;41.70;;;16.42;;
75413;SDS011;64758;52.122;5.404;2023-05-10T02:13:24;45.53;;;17.70;;
75413;SDS011;64758;52.122;5.404;2023-05-10T02:15:53;41.60;;;18.08;;
75413;SDS011;64758;52.122;5.404;2023-05-10T02:18:21;45.95;;;18.58;;
75413;SDS011;64758;52.122;5.404;2023-05-10T02:20:49;41.63;;;18.03;;
75413;SDS011;64758;52.122;5.404;2023-05-10T02:23:18;45.78;;;18.98;;
75413;SDS011;64758;52.122;5.404;2023-05-10T02:25:47;43.63;;;17.00;;
75413;SDS011;64758;52.122;5.404;2023-05-10T02:28:15;47.45;;;17.30;;
75413;SDS011;64758;52.122;5.404;2023-05-10T02:30:44;46.03;;;18.30;;
75413;SDS011;64758;52.122;5.404;2023-05-10T02:33:11;43.67;;;18.13;;
75413;SDS011;64758;52.122;5.404;2023-05-10T02:35:38;46.13;;;18.33;;
75413;SDS011;64758;52.122;5.404;2023-05-10T02:38:05;43.58;;;17.77;;
75413;SDS011;64758;52.122;5.404;2023-05-10T02:40:33;43.90;;;16.92;;
75413;SDS011;64758;52.122;5.404;2023-05-10T02:43:02;41.35;;;17.13;;
75413;SDS011;64758;52.122;5.404;2023-05-10T02:45:32;46.33;;;18.70;;
75413;SDS011;64758;52.122;5.404;2023-05-10T02:48:01;45.58;;;17.77;;
75413;SDS011;64758;52.122;5.404;2023-05-10T02:50:29;42.35;;;17.15;;
75413;SDS011;64758;52.122;5.404;2023-05-10T02:53:02;45.45;;;18.00;;
75413;SDS011;64758;52.122;5.404;2023-05-10T02:55:36;49.33;;;19.73;;
75413;SDS011;64758;52.122;5.404;2023-05-10T02:58:06;42.50;;;18.30;;
75413;SDS011;64758;52.122;5.404;2023-05-10T03:00:32;52.80;;;19.85;;
75413;SDS011;64758;52.122;5.404;2023-05-10T03:02:59;51.72;;;18.52;;
75413;SDS011;64758;52.122;5.404;2023-05-10T03:05:26;54.42;;;19.35;;
75413;SDS011;64758;52.122;5.404;2023-05-10T03:07:53;52.58;;;20.17;;
75413;SDS011;64758;52.122;5.404;2023-05-10T03:10:21;56.83;;;19.90;;
75413;SDS011;64758;52.122;5.404;2023-05-10T03:12:57;55.28;;;19.90;;
75413;SDS011;64758;52.122;5.404;2023-05-10T03:18:11;59.53;;;20.90;;
75413;SDS011;64758;52.122;5.404;2023-05-10T03:20:47;58.92;;;20.48;;
75413;SDS011;64758;52.122;5.404;2023-05-10T03:26:03;57.38;;;18.30;;
75413;SDS011;64758;52.122;5.404;2023-05-10T03:28:31;60.20;;;19.15;;
75413;SDS011;64758;52.122;5.404;2023-05-10T03:31:00;62.38;;;20.17;;
75413;SDS011;64758;52.122;5.404;2023-05-10T03:33:27;63.50;;;20.50;;
75413;SDS011;64758;52.122;5.404;2023-05-10T03:35:54;58.07;;;19.30;;
75413;SDS011;64758;52.122;5.404;2023-05-10T03:38:20;60.00;;;18.58;;
75413;SDS011;64758;52.122;5.404;2023-05-10T03:40:47;49.90;;;17.98;;
75413;SDS011;64758;52.122;5.404;2023-05-10T03:43:13;59.55;;;18.08;;
75413;SDS011;64758;52.122;5.404;2023-05-10T03:45:39;58.42;;;20.13;;
75413;SDS011;64758;52.122;5.404;2023-05-10T03:48:06;60.33;;;19.90;;
75413;SDS011;64758;52.122;5.404;2023-05-10T03:50:33;59.10;;;20.23;;
75413;SDS011;64758;52.122;5.404;2023-05-10T03:52:59;59.15;;;20.02;;
75413;SDS011;64758;52.122;5.404;2023-05-10T03:55:26;58.92;;;19.38;;
75413;SDS011;64758;52.122;5.404;2023-05-10T03:57:52;59.70;;;19.00;;
75413;SDS011;64758;52.122;5.404;2023-05-10T04:00:20;62.57;;;18.93;;
75413;SDS011;64758;52.122;5.404;2023-05-10T04:02:46;60.63;;;19.85;;
75413;SDS011;64758;52.122;5.404;2023-05-10T04:05:13;57.63;;;18.58;;
75413;SDS011;64758;52.122;5.404;2023-05-10T04:07:39;53.70;;;18.67;;
75413;SDS011;64758;52.122;5.404;2023-05-10T04:10:06;58.30;;;18.50;;
75413;SDS011;64758;52.122;5.404;2023-05-10T04:12:33;54.10;;;18.80;;
75413;SDS011;64758;52.122;5.404;2023-05-10T04:14:59;57.72;;;17.63;;
75413;SDS011;64758;52.122;5.404;2023-05-10T04:17:26;50.85;;;17.45;;
75413;SDS011;64758;52.122;5.404;2023-05-10T04:19:53;51.10;;;17.77;;
75413;SDS011;64758;52.122;5.404;2023-05-10T04:22:20;54.10;;;18.23;;
75413;SDS011;64758;52.122;5.404;2023-05-10T04:24:47;48.17;;;17.73;;
75413;SDS011;64758;52.122;5.404;2023-05-10T04:27:14;48.88;;;16.98;;
75413;SDS011;64758;52.122;5.404;2023-05-10T04:29:40;53.67;;;18.88;;
75413;SDS011;64758;52.122;5.404;2023-05-10T04:32:07;53.25;;;17.40;;
75413;SDS011;64758;52.122;5.404;2023-05-10T04:34:34;55.20;;;17.10;;
75413;SDS011;64758;52.122;5.404;2023-05-10T04:37:00;54.73;;;17.03;;
75413;SDS011;64758;52.122;5.404;2023-05-10T04:39:27;53.63;;;17.15;;
75413;SDS011;64758;52.122;5.404;2023-05-10T04:41:53;52.47;;;17.38;;
75413;SDS011;64758;52.122;5.404;2023-05-10T04:44:20;49.17;;;17.70;;
75413;SDS011;64758;52.122;5.404;2023-05-10T04:46:47;57.58;;;18.23;;
75413;SDS011;64758;52.122;5.404;2023-05-10T04:49:13;51.80;;;17.33;;
75413;SDS011;64758;52.122;5.404;2023-05-10T04:51:40;55.88;;;17.90;;
75413;SDS011;64758;52.122;5.404;2023-05-10T04:54:07;55.05;;;17.17;;
75413;SDS011;64758;52.122;5.404;2023-05-10T04:56:33;54.13;;;17.90;;
75413;SDS011;64758;52.122;5.404;2023-05-10T04:59:00;53.58;;;19.15;;
75413;SDS011;64758;52.122;5.404;2023-05-10T05:01:26;53.37;;;17.90;;
75413;SDS011;64758;52.122;5.404;2023-05-10T05:03:53;50.00;;;17.83;;
75413;SDS011;64758;52.122;5.404;2023-05-10T05:06:20;55.38;;;18.42;;
75413;SDS011;64758;52.122;5.404;2023-05-10T05:08:51;56.55;;;18.08;;
75413;SDS011;64758;52.122;5.404;2023-05-10T05:11:17;46.78;;;17.23;;
75413;SDS011;64758;52.122;5.404;2023-05-10T05:13:44;62.57;;;18.70;;
75413;SDS011;64758;52.122;5.404;2023-05-10T05:16:10;55.55;;;18.77;;
75413;SDS011;64758;52.122;5.404;2023-05-10T05:18:37;58.20;;;18.48;;
75413;SDS011;64758;52.122;5.404;2023-05-10T05:21:17;57.30;;;17.63;;
75413;SDS011;64758;52.122;5.404;2023-05-10T05:23:44;58.97;;;17.15;;
75413;SDS011;64758;52.122;5.404;2023-05-10T05:26:11;58.57;;;18.47;;
75413;SDS011;64758;52.122;5.404;2023-05-10T05:28:38;61.00;;;18.90;;
75413;SDS011;64758;52.122;5.404;2023-05-10T05:31:05;59.08;;;18.50;;
75413;SDS011;64758;52.122;5.404;2023-05-10T05:33:32;61.08;;;19.83;;
75413;SDS011;64758;52.122;5.404;2023-05-10T05:36:03;64.22;;;20.13;;
75413;SDS011;64758;52.122;5.404;2023-05-10T05:38:31;59.37;;;19.63;;
75413;SDS011;64758;52.122;5.404;2023-05-10T05:40:57;60.50;;;19.38;;
75413;SDS011;64758;52.122;5.404;2023-05-10T05:43:24;54.65;;;18.23;;
75413;SDS011;64758;52.122;5.404;2023-05-10T05:45:54;49.22;;;19.02;;
75413;SDS011;64758;52.122;5.404;2023-05-10T05:48:24;51.35;;;18.25;;
75413;SDS011;64758;52.122;5.404;2023-05-10T05:50:53;49.57;;;18.57;;
75413;SDS011;64758;52.122;5.404;2023-05-10T05:53:21;51.88;;;18.95;;
75413;SDS011;64758;52.122;5.404;2023-05-10T05:55:52;56.13;;;18.48;;
75413;SDS011;64758;52.122;5.404;2023-05-10T05:58:22;56.58;;;18.67;;
75413;SDS011;64758;52.122;5.404;2023-05-10T06:00:49;53.00;;;17.92;;
75413;SDS011;64758;52.122;5.404;2023-05-10T06:03:16;53.97;;;18.07;;
75413;SDS011;64758;52.122;5.404;2023-05-10T06:05:43;44.60;;;16.98;;
75413;SDS011;64758;52.122;5.404;2023-05-10T06:08:09;37.03;;;15.75;;
75413;SDS011;64758;52.122;5.404;2023-05-10T06:10:36;40.10;;;15.75;;
75413;SDS011;64758;52.122;5.404;2023-05-10T06:13:03;43.17;;;17.70;;
75413;SDS011;64758;52.122;5.404;2023-05-10T06:15:30;42.33;;;18.03;;
75413;SDS011;64758;52.122;5.404;2023-05-10T06:17:56;44.10;;;17.25;;
75413;SDS011;64758;52.122;5.404;2023-05-10T06:20:23;37.63;;;15.82;;
75413;SDS011;64758;52.122;5.404;2023-05-10T06:22:49;37.80;;;15.95;;
75413;SDS011;64758;52.122;5.404;2023-05-10T06:25:16;44.45;;;17.08;;
75413;SDS011;64758;52.122;5.404;2023-05-10T06:27:44;38.83;;;15.33;;
75413;SDS011;64758;52.122;5.404;2023-05-10T06:30:17;37.60;;;15.23;;
75413;SDS011;64758;52.122;5.404;2023-05-10T06:32:43;42.20;;;14.95;;
75413;SDS011;64758;52.122;5.404;2023-05-10T06:35:11;36.55;;;15.77;;
75413;SDS011;64758;52.122;5.404;2023-05-10T06:37:37;38.60;;;13.95;;
75413;SDS011;64758;52.122;5.404;2023-05-10T06:40:05;33.57;;;13.43;;
75413;SDS011;64758;52.122;5.404;2023-05-10T06:42:32;36.33;;;14.10;;
75413;SDS011;64758;52.122;5.404;2023-05-10T06:44:59;33.22;;;14.18;;
75413;SDS011;64758;52.122;5.404;2023-05-10T06:47:25;32.60;;;13.70;;
75413;SDS011;64758;52.122;5.404;2023-05-10T06:49:52;32.60;;;13.15;;
75413;SDS011;64758;52.122;5.404;2023-05-10T06:52:18;33.70;;;13.03;;
75413;SDS011;64758;52.122;5.404;2023-05-10T06:54:45;31.23;;;12.55;;
75413;SDS011;64758;52.122;5.404;2023-05-10T06:57:11;30.17;;;12.23;;
75413;SDS011;64758;52.122;5.404;2023-05-10T06:59:56;30.13;;;10.85;;
75413;SDS011;64758;52.122;5.404;2023-05-10T07:02:23;30.05;;;11.75;;
75413;SDS011;64758;52.122;5.404;2023-05-10T07:04:49;22.67;;;9.80;;
75413;SDS011;64758;52.122;5.404;2023-05-10T07:07:18;20.45;;;8.68;;
75413;SDS011;64758;52.122;5.404;2023-05-10T07:09:45;21.15;;;9.27;;
75413;SDS011;64758;52.122;5.404;2023-05-10T07:12:12;18.27;;;8.15;;
75413;SDS011;64758;52.122;5.404;2023-05-10T07:14:41;19.05;;;8.07;;
75413;SDS011;64758;52.122;5.404;2023-05-10T07:17:08;17.23;;;8.03;;
75413;SDS011;64758;52.122;5.404;2023-05-10T07:19:35;16.58;;;7.65;;
75413;SDS011;64758;52.122;5.404;2023-05-10T07:22:02;15.43;;;8.38;;
75413;SDS011;64758;52.122;5.404;2023-05-10T07:24:28;19.33;;;7.35;;
75413;SDS011;64758;52.122;5.404;2023-05-10T07:26:55;15.80;;;6.85;;
75413;SDS011;64758;52.122;5.404;2023-05-10T07:29:22;14.57;;;7.10;;
75413;SDS011;64758;52.122;5.404;2023-05-10T07:31:50;15.38;;;6.88;;
75413;SDS011;64758;52.122;5.404;2023-05-10T07:34:16;12.73;;;6.45;;
75413;SDS011;64758;52.122;5.404;2023-05-10T07:36:43;14.52;;;7.43;;
75413;SDS011;64758;52.122;5.404;2023-05-10T07:39:10;15.10;;;6.82;;
75413;SDS011;64758;52.122;5.404;2023-05-10T07:41:41;12.93;;;6.30;;
75413;SDS011;64758;52.122;5.404;2023-05-10T07:44:08;15.65;;;6.97;;
75413;SDS011;64758;52.122;5.404;2023-05-10T07:46:35;15.23;;;7.53;;
75413;SDS011;64758;52.122;5.404;2023-05-10T07:49:01;13.80;;;6.65;;
75413;SDS011;64758;52.122;5.404;2023-05-10T07:51:28;13.18;;;6.30;;
75413;SDS011;64758;52.122;5.404;2023-05-10T07:53:54;15.00;;;6.73;;
75413;SDS011;64758;52.122;5.404;2023-05-10T07:56:28;11.27;;;5.95;;
75413;SDS011;64758;52.122;5.404;2023-05-10T07:58:56;12.57;;;6.45;;
75413;SDS011;64758;52.122;5.404;2023-05-10T08:01:23;13.23;;;5.82;;
75413;SDS011;64758;52.122;5.404;2023-05-10T08:03:50;13.65;;;6.20;;
75413;SDS011;64758;52.122;5.404;2023-05-10T08:06:18;13.63;;;6.23;;
75413;SDS011;64758;52.122;5.404;2023-05-10T08:08:45;10.52;;;5.55;;
75413;SDS011;64758;52.122;5.404;2023-05-10T08:11:16;11.27;;;5.68;;
75413;SDS011;64758;52.122;5.404;2023-05-10T08:13:44;11.30;;;6.22;;
75413;SDS011;64758;52.122;5.404;2023-05-10T08:16:11;14.88;;;7.00;;
75413;SDS011;64758;52.122;5.404;2023-05-10T08:18:38;14.43;;;6.30;;
75413;SDS011;64758;52.122;5.404;2023-05-10T08:21:05;12.20;;;6.20;;
75413;SDS011;64758;52.122;5.404;2023-05-10T08:23:32;13.23;;;6.95;;
75413;SDS011;64758;52.122;5.404;2023-05-10T08:25:58;13.02;;;6.63;;
75413;SDS011;64758;52.122;5.404;2023-05-10T08:28:26;14.63;;;6.85;;
75413;SDS011;64758;52.122;5.404;2023-05-10T08:30:53;13.87;;;6.83;;
75413;SDS011;64758;52.122;5.404;2023-05-10T08:33:20;14.52;;;6.75;;
75413;SDS011;64758;52.122;5.404;2023-05-10T08:35:46;18.92;;;7.28;;
75413;SDS011;64758;52.122;5.404;2023-05-10T08:38:13;14.95;;;7.15;;
75413;SDS011;64758;52.122;5.404;2023-05-10T08:40:43;12.30;;;7.30;;
75413;SDS011;64758;52.122;5.404;2023-05-10T08:43:11;13.50;;;7.27;;
75413;SDS011;64758;52.122;5.404;2023-05-10T08:45:39;14.35;;;7.88;;
75413;SDS011;64758;52.122;5.404;2023-05-10T08:48:07;15.52;;;6.80;;
75413;SDS011;64758;52.122;5.404;2023-05-10T08:50:35;15.48;;;7.13;;
75413;SDS011;64758;52.122;5.404;2023-05-10T08:53:04;15.57;;;7.43;;
75413;SDS011;64758;52.122;5.404;2023-05-10T08:55:33;17.73;;;8.47;;
75413;SDS011;64758;52.122;5.404;2023-05-10T08:58:00;12.70;;;7.60;;
75413;SDS011;64758;52.122;5.404;2023-05-10T09:00:26;14.73;;;7.55;;
75413;SDS011;64758;52.122;5.404;2023-05-10T09:02:54;11.85;;;6.80;;
75413;SDS011;64758;52.122;5.404;2023-05-10T09:05:21;16.35;;;7.72;;
75413;SDS011;64758;52.122;5.404;2023-05-10T09:07:47;13.27;;;7.30;;
75413;SDS011;64758;52.122;5.404;2023-05-10T09:10:14;12.73;;;7.43;;
75413;SDS011;64758;52.122;5.404;2023-05-10T09:12:42;12.75;;;6.60;;
75413;SDS011;64758;52.122;5.404;2023-05-10T09:15:10;9.63;;;4.80;;
75413;SDS011;64758;52.122;5.404;2023-05-10T09:17:38;11.27;;;6.35;;
75413;SDS011;64758;52.122;5.404;2023-05-10T09:20:06;12.50;;;6.57;;
75413;SDS011;64758;52.122;5.404;2023-05-10T09:22:33;11.38;;;5.95;;
75413;SDS011;64758;52.122;5.404;2023-05-10T09:27:35;8.18;;;5.45;;
75413;SDS011;64758;52.122;5.404;2023-05-10T09:30:02;8.70;;;5.55;;
75413;SDS011;64758;52.122;5.404;2023-05-10T09:35:22;8.23;;;5.10;;
75413;SDS011;64758;52.122;5.404;2023-05-10T09:37:57;9.18;;;4.90;;
75413;SDS011;64758;52.122;5.404;2023-05-10T09:40:26;7.22;;;4.40;;
75413;SDS011;64758;52.122;5.404;2023-05-10T09:43:03;6.72;;;4.22;;
75413;SDS011;64758;52.122;5.404;2023-05-10T09:45:34;8.90;;;4.20;;
75413;SDS011;64758;52.122;5.404;2023-05-10T09:48:04;8.10;;;4.07;;
75413;SDS011;64758;52.122;5.404;2023-05-10T09:50:32;6.97;;;3.97;;
75413;SDS011;64758;52.122;5.404;2023-05-10T09:53:01;5.80;;;3.90;;
75413;SDS011;64758;52.122;5.404;2023-05-10T09:58:02;6.70;;;3.10;;
75413;SDS011;64758;52.122;5.404;2023-05-10T10:00:33;5.60;;;3.35;;
75413;SDS011;64758;52.122;5.404;2023-05-10T10:03:01;5.05;;;2.88;;
75413;SDS011;64758;52.122;5.404;2023-05-10T10:05:35;5.90;;;3.17;;
75413;SDS011;64758;52.122;5.404;2023-05-10T10:08:02;5.32;;;3.10;;
75413;SDS011;64758;52.122;5.404;2023-05-10T10:10:31;6.87;;;3.37;;
75413;SDS011;64758;52.122;5.404;2023-05-10T10:12:58;4.05;;;3.13;;
75413;SDS011;64758;52.122;5.404;2023-05-10T10:15:26;6.75;;;3.25;;
75413;SDS011;64758;52.122;5.404;2023-05-10T10:17:52;6.50;;;3.28;;
75413;SDS011;64758;52.122;5.404;2023-05-10T10:20:20;4.53;;;3.35;;
75413;SDS011;64758;52.122;5.404;2023-05-10T10:22:49;6.27;;;4.00;;
75413;SDS011;64758;52.122;5.404;2023-05-10T10:25:16;5.90;;;3.83;;
75413;SDS011;64758;52.122;5.404;2023-05-10T10:27:49;5.85;;;3.97;;
75413;SDS011;64758;52.122;5.404;2023-05-10T10:33:30;8.13;;;4.15;;
75413;SDS011;64758;52.122;5.404;2023-05-10T10:36:05;7.37;;;4.37;;
75413;SDS011;64758;52.122;5.404;2023-05-10T10:38:35;7.05;;;4.03;;
75413;SDS011;64758;52.122;5.404;2023-05-10T10:41:27;8.30;;;4.78;;
75413;SDS011;64758;52.122;5.404;2023-05-10T10:49:26;7.47;;;3.93;;
75413;SDS011;64758;52.122;5.404;2023-05-10T10:54:47;7.65;;;4.05;;
75413;SDS011;64758;52.122;5.404;2023-05-10T10:57:17;8.05;;;4.10;;
75413;SDS011;64758;52.122;5.404;2023-05-10T10:59:45;4.88;;;3.50;;
75413;SDS011;64758;52.122;5.404;2023-05-10T11:13:33;7.47;;;4.00;;
75413;SDS011;64758;52.122;5.404;2023-05-10T11:16:15;9.73;;;3.60;;
75413;SDS011;64758;52.122;5.404;2023-05-10T11:19:00;6.00;;;3.50;;
75413;SDS011;64758;52.122;5.404;2023-05-10T11:21:31;6.28;;;3.00;;
75413;SDS011;64758;52.122;5.404;2023-05-10T11:24:00;6.18;;;3.40;;
75413;SDS011;64758;52.122;5.404;2023-05-10T11:26:31;6.35;;;3.60;;
75413;SDS011;64758;52.122;5.404;2023-05-10T11:28:59;4.83;;;3.10;;
75413;SDS011;64758;52.122;5.404;2023-05-10T11:31:28;4.38;;;3.03;;
75413;SDS011;64758;52.122;5.404;2023-05-10T11:33:56;5.45;;;2.80;;
75413;SDS011;64758;52.122;5.404;2023-05-10T11:36:25;5.72;;;3.42;;
75413;SDS011;64758;52.122;5.404;2023-05-10T11:38:54;5.85;;;3.20;;
75413;SDS011;64758;52.122;5.404;2023-05-10T11:41:22;4.77;;;3.10;;
75413;SDS011;64758;52.122;5.404;2023-05-10T11:43:50;5.68;;;3.03;;
75413;SDS011;64758;52.122;5.404;2023-05-10T11:46:18;6.68;;;2.85;;
75413;SDS011;64758;52.122;5.404;2023-05-10T11:48:47;5.22;;;3.00;;
75413;SDS011;64758;52.122;5.404;2023-05-10T11:51:19;5.60;;;2.38;;
75413;SDS011;64758;52.122;5.404;2023-05-10T11:53:47;3.37;;;2.30;;
75413;SDS011;64758;52.122;5.404;2023-05-10T11:56:13;3.60;;;2.30;;
75413;SDS011;64758;52.122;5.404;2023-05-10T11:58:40;4.63;;;2.60;;
75413;SDS011;64758;52.122;5.404;2023-05-10T12:01:07;3.35;;;2.42;;
75413;SDS011;64758;52.122;5.404;2023-05-10T12:03:35;4.68;;;2.75;;
75413;SDS011;64758;52.122;5.404;2023-05-10T12:06:02;5.67;;;2.67;;
75413;SDS011;64758;52.122;5.404;2023-05-10T12:08:29;4.53;;;3.13;;
75413;SDS011;64758;52.122;5.404;2023-05-10T12:11:06;5.00;;;2.90;;
75413;SDS011;64758;52.122;5.404;2023-05-10T12:13:38;4.90;;;1.95;;
75413;SDS011;64758;52.122;5.404;2023-05-10T12:16:15;4.95;;;2.08;;
75413;SDS011;64758;52.122;5.404;2023-05-10T12:18:43;2.70;;;1.93;;
75413;SDS011;64758;52.122;5.404;2023-05-10T12:21:11;3.95;;;2.35;;
75413;SDS011;64758;52.122;5.404;2023-05-10T12:23:41;4.95;;;2.72;;
75413;SDS011;64758;52.122;5.404;2023-05-10T12:26:11;5.25;;;2.30;;
75413;SDS011;64758;52.122;5.404;2023-05-10T12:28:38;4.15;;;2.58;;
75413;SDS011;64758;52.122;5.404;2023-05-10T12:31:06;6.83;;;2.60;;
75413;SDS011;64758;52.122;5.404;2023-05-10T12:33:39;6.32;;;2.40;;
75413;SDS011;64758;52.122;5.404;2023-05-10T12:36:09;3.00;;;1.95;;
75413;SDS011;64758;52.122;5.404;2023-05-10T12:38:38;5.50;;;2.63;;
75413;SDS011;64758;52.122;5.404;2023-05-10T12:41:09;4.95;;;2.10;;
75413;SDS011;64758;52.122;5.404;2023-05-10T12:43:38;3.90;;;2.00;;
75413;SDS011;64758;52.122;5.404;2023-05-10T12:46:08;3.30;;;1.80;;
75413;SDS011;64758;52.122;5.404;2023-05-10T12:48:37;2.65;;;1.88;;
75413;SDS011;64758;52.122;5.404;2023-05-10T12:51:05;3.78;;;2.00;;
75413;SDS011;64758;52.122;5.404;2023-05-10T12:53:35;3.63;;;1.90;;
75413;SDS011;64758;52.122;5.404;2023-05-10T12:56:02;6.83;;;1.80;;
75413;SDS011;64758;52.122;5.404;2023-05-10T12:58:29;4.00;;;1.38;;
75413;SDS011;64758;52.122;5.404;2023-05-10T13:01:01;3.00;;;1.48;;
75413;SDS011;64758;52.122;5.404;2023-05-10T13:03:28;3.95;;;1.48;;
75413;SDS011;64758;52.122;5.404;2023-05-10T13:05:55;2.70;;;1.30;;
75413;SDS011;64758;52.122;5.404;2023-05-10T13:08:21;2.13;;;1.20;;
75413;SDS011;64758;52.122;5.404;2023-05-10T13:10:48;3.75;;;1.30;;
75413;SDS011;64758;52.122;5.404;2023-05-10T13:13:15;3.08;;;2.10;;
75413;SDS011;64758;52.122;5.404;2023-05-10T13:15:41;5.00;;;3.00;;
75413;SDS011;64758;52.122;5.404;2023-05-10T13:18:08;5.80;;;3.22;;
75413;SDS011;64758;52.122;5.404;2023-05-10T13:20:34;4.73;;;2.83;;
75413;SDS011;64758;52.122;5.404;2023-05-10T13:23:01;6.60;;;3.45;;
75413;SDS011;64758;52.122;5.404;2023-05-10T13:25:28;8.48;;;3.45;;
75413;SDS011;64758;52.122;5.404;2023-05-10T13:27:55;7.72;;;4.20;;
75413;SDS011;64758;52.122;5.404;2023-05-10T13:30:22;6.70;;;3.50;;
75413;SDS011;64758;52.122;5.404;2023-05-10T13:32:49;8.07;;;3.33;;
75413;SDS011;64758;52.122;5.404;2023-05-10T13:35:16;4.82;;;3.00;;
75413;SDS011;64758;52.122;5.404;2023-05-10T13:37:43;4.65;;;3.10;;
75413;SDS011;64758;52.122;5.404;2023-05-10T13:40:09;8.48;;;3.33;;
75413;SDS011;64758;52.122;5.404;2023-05-10T13:42:36;5.78;;;2.65;;
75413;SDS011;64758;52.122;5.404;2023-05-10T13:45:03;5.90;;;2.90;;
75413;SDS011;64758;52.122;5.404;2023-05-10T13:47:30;8.23;;;3.47;;
75413;SDS011;64758;52.122;5.404;2023-05-10T13:49:57;7.53;;;3.78;;
75413;SDS011;64758;52.122;5.404;2023-05-10T13:52:25;5.70;;;3.33;;
75413;SDS011;64758;52.122;5.404;2023-05-10T13:54:52;7.88;;;4.07;;
75413;SDS011;64758;52.122;5.404;2023-05-10T13:57:21;7.50;;;3.53;;
75413;SDS011;64758;52.122;5.404;2023-05-10T13:59:48;7.82;;;3.60;;
75413;SDS011;64758;52.122;5.404;2023-05-10T14:02:14;8.50;;;3.67;;
75413;SDS011;64758;52.122;5.404;2023-05-10T14:04:41;7.28;;;3.63;;
75413;SDS011;64758;52.122;5.404;2023-05-10T14:07:07;7.97;;;3.88;;
75413;SDS011;64758;52.122;5.404;2023-05-10T14:09:34;9.67;;;3.80;;
75413;SDS011;64758;52.122;5.404;2023-05-10T14:12:00;8.05;;;3.65;;
75413;SDS011;64758;52.122;5.404;2023-05-10T14:14:28;7.32;;;3.85;;
75413;SDS011;64758;52.122;5.404;2023-05-10T14:16:55;7.45;;;4.40;;
75413;SDS011;64758;52.122;5.404;2023-05-10T14:19:22;8.38;;;4.00;;
75413;SDS011;64758;52.122;5.404;2023-05-10T14:21:48;9.33;;;4.27;;
75413;SDS011;64758;52.122;5.404;2023-05-10T14:24:15;8.82;;;4.45;;
75413;SDS011;64758;52.122;5.404;2023-05-10T14:26:41;8.82;;;4.28;;
75413;SDS011;64758;52.122;5.404;2023-05-10T14:29:08;10.20;;;4.20;;
75413;SDS011;64758;52.122;5.404;2023-05-10T14:31:37;12.85;;;4.60;;
75413;SDS011;64758;52.122;5.404;2023-05-10T14:34:04;8.93;;;3.83;;
75413;SDS011;64758;52.122;5.404;2023-05-10T14:36:31;8.50;;;4.25;;
75413;SDS011;64758;52.122;5.404;2023-05-10T14:38:58;8.90;;;4.35;;
75413;SDS011;64758;52.122;5.404;2023-05-10T14:41:25;11.82;;;4.85;;
75413;SDS011;64758;52.122;5.404;2023-05-10T14:43:52;11.18;;;4.85;;
75413;SDS011;64758;52.122;5.404;2023-05-10T14:46:18;11.27;;;5.10;;
75413;SDS011;64758;52.122;5.404;2023-05-10T14:48:45;9.05;;;4.50;;
75413;SDS011;64758;52.122;5.404;2023-05-10T14:51:12;13.07;;;5.40;;
75413;SDS011;64758;52.122;5.404;2023-05-10T14:53:39;10.68;;;4.93;;
75413;SDS011;64758;52.122;5.404;2023-05-10T14:56:05;9.32;;;4.53;;
75413;SDS011;64758;52.122;5.404;2023-05-10T14:58:32;11.43;;;5.23;;
75413;SDS011;64758;52.122;5.404;2023-05-10T15:00:59;10.75;;;4.93;;
75413;SDS011;64758;52.122;5.404;2023-05-10T15:03:27;11.02;;;5.13;;
75413;SDS011;64758;52.122;5.404;2023-05-10T15:05:54;10.25;;;4.75;;
75413;SDS011;64758;52.122;5.404;2023-05-10T15:08:22;12.25;;;5.38;;
75413;SDS011;64758;52.122;5.404;2023-05-10T15:10:50;10.57;;;4.70;;
75413;SDS011;64758;52.122;5.404;2023-05-10T15:13:17;9.88;;;4.93;;
75413;SDS011;64758;52.122;5.404;2023-05-10T15:15:44;10.88;;;5.35;;
75413;SDS011;64758;52.122;5.404;2023-05-10T15:18:11;11.25;;;5.22;;
75413;SDS011;64758;52.122;5.404;2023-05-10T15:20:37;10.52;;;5.50;;
75413;SDS011;64758;52.122;5.404;2023-05-10T15:23:04;10.63;;;5.40;;